Time;durP1;ratioP1;P1;durP2;ratioP2;P2;SDS_P1;SDS_P2;PMS_P1;PMS_P2;Temp;Humidity;BMP_temperature;BMP_pressure;BME280_temperature;BME280_humidity;BME280_pressure;Samples;Min_cycle;Max_cycle;Signal;HPM_P1;HPM_P2
2021/05/15 00:01:29;;;;;;;1.43;0.60;;;;;;;14.87;87.03;97453.56;5026516;28;20555;-68
2021/05/15 00:03:56;;;;;;;1.07;0.50;;;;;;;14.76;87.18;97455.28;5030943;28;20211;-69
2021/05/15 00:06:24;;;;;;;0.77;0.60;;;;;;;14.79;87.86;97456.66;5018086;28;20270;-68
2021/05/15 00:08:52;;;;;;;0.73;0.60;;;;;;;14.79;87.18;97448.59;5024797;28;20670;-68
2021/05/15 00:11:18;;;;;;;0.90;0.70;;;;;;;14.48;91.08;97452.56;5017950;28;20210;-69
2021/05/15 00:13:46;;;;;;;0.70;0.40;;;;;;;14.54;89.66;97450.81;5024909;28;20214;-70
2021/05/15 00:16:13;;;;;;;0.80;0.70;;;;;;;14.71;88.62;97443.63;5026469;28;20556;-69
2021/05/15 00:18:40;;;;;;;0.73;0.57;;;;;;;14.44;90.05;97443.34;5020237;28;20211;-69
2021/05/15 00:21:07;;;;;;;1.57;0.50;;;;;;;14.23;91.37;97449.38;5016224;28;20203;-68
2021/05/15 00:23:34;;;;;;;1.17;0.57;;;;;;;14.22;91.10;97447.75;5026296;28;20221;-68
2021/05/15 00:26:02;;;;;;;1.80;0.50;;;;;;;14.53;88.94;97449.19;5022248;28;20546;-68
2021/05/15 00:28:29;;;;;;;1.47;0.60;;;;;;;14.15;91.11;97446.22;5032488;28;20206;-68
2021/05/15 00:30:56;;;;;;;3.90;0.70;;;;;;;14.40;89.42;97444.09;5027469;28;20238;-68
2021/05/15 00:33:22;;;;;;;0.63;0.37;;;;;;;14.36;88.65;97441.06;5032659;28;20267;-68
2021/05/15 00:35:49;;;;;;;0.63;0.47;;;;;;;14.52;88.22;97440.31;5031710;28;20215;-68
2021/05/15 00:38:16;;;;;;;1.13;0.50;;;;;;;14.21;89.84;97434.56;5019792;28;20232;-68
2021/05/15 00:40:43;;;;;;;0.47;0.47;;;;;;;14.17;89.55;97433.38;5026638;28;20613;-69
2021/05/15 00:43:10;;;;;;;1.90;0.50;;;;;;;14.39;88.17;97439.78;5023191;28;20212;-69
2021/05/15 00:45:37;;;;;;;0.93;0.63;;;;;;;14.06;89.37;97434.22;5032729;28;20613;-69
2021/05/15 00:48:05;;;;;;;2.20;0.70;;;;;;;14.01;90.32;97436.78;5032773;28;20288;-69
2021/05/15 00:50:33;;;;;;;0.40;0.40;;;;;;;13.74;90.97;97433.81;5022385;28;20211;-69
2021/05/15 00:53:03;;;;;;;2.70;0.67;;;;;;;14.12;89.17;97430.59;5029786;28;20298;-69
2021/05/15 00:55:29;;;;;;;0.93;0.33;;;;;;;14.01;89.96;97418.84;5026622;28;20263;-69
2021/05/15 00:57:57;;;;;;;0.57;0.43;;;;;;;14.16;88.19;97421.00;5028135;28;20597;-69
2021/05/15 01:00:25;;;;;;;3.57;1.43;;;;;;;14.18;87.81;97421.59;5032174;28;20213;-68
2021/05/15 01:02:52;;;;;;;0.77;0.50;;;;;;;13.98;88.80;97418.50;5032149;28;20207;-68
2021/05/15 01:05:19;;;;;;;0.80;0.50;;;;;;;14.07;88.97;97433.16;5019589;28;20295;-68
2021/05/15 01:07:47;;;;;;;0.83;0.40;;;;;;;13.83;89.77;97424.34;5017693;28;20229;-68
2021/05/15 01:10:14;;;;;;;0.63;0.40;;;;;;;13.86;89.54;97423.88;5027433;28;20206;-68
2021/05/15 01:12:46;;;;;;;3.20;0.47;;;;;;;13.68;91.06;97418.63;5024732;28;20207;-68
2021/05/15 01:15:13;;;;;;;2.30;0.60;;;;;;;14.12;88.53;97423.34;5031829;28;20664;-68
2021/05/15 01:17:49;;;;;;;1.57;0.40;;;;;;;13.99;89.05;97426.28;5032170;28;20226;-68
2021/05/15 01:20:16;;;;;;;0.40;0.37;;;;;;;14.00;89.48;97430.63;5029951;28;20256;-68
2021/05/15 01:22:44;;;;;;;1.70;0.60;;;;;;;13.69;92.46;97428.34;5027026;28;20214;-68
2021/05/15 01:25:12;;;;;;;2.33;0.40;;;;;;;14.08;89.60;97430.25;5028484;28;20579;-69
2021/05/15 01:27:38;;;;;;;1.60;0.77;;;;;;;13.95;89.59;97433.19;5021138;28;20237;-69
2021/05/15 01:30:07;;;;;;;0.50;0.40;;;;;;;13.86;90.69;97425.72;5029611;28;20199;-69
2021/05/15 01:32:36;;;;;;;1.47;0.70;;;;;;;13.84;91.03;97433.22;5031689;28;20603;-69
2021/05/15 01:35:03;;;;;;;0.80;0.50;;;;;;;14.04;90.24;97433.66;5023078;28;20208;-69
2021/05/15 01:37:30;;;;;;;1.13;0.60;;;;;;;13.95;90.90;97432.38;5025399;28;20229;-69
2021/05/15 01:39:58;;;;;;;0.53;0.40;;;;;;;14.03;90.70;97429.34;5029011;28;20317;-69
2021/05/15 01:42:25;;;;;;;0.70;0.60;;;;;;;13.88;91.81;97429.81;5019240;28;20214;-69
2021/05/15 01:44:51;;;;;;;0.90;0.57;;;;;;;13.69;93.02;97436.38;5022899;28;20208;-69
2021/05/15 01:47:18;;;;;;;0.60;0.57;;;;;;;13.88;92.28;97434.38;5030619;28;20232;-69
2021/05/15 01:49:47;;;;;;;0.80;0.57;;;;;;;14.04;91.00;97433.66;5023096;28;20207;-69
2021/05/15 01:52:14;;;;;;;0.87;0.50;;;;;;;13.93;91.15;97434.50;5024200;28;20207;-69
2021/05/15 01:54:41;;;;;;;0.83;0.60;;;;;;;13.72;92.20;97430.53;5029224;28;20215;-69
2021/05/15 01:57:09;;;;;;;1.47;0.60;;;;;;;13.83;91.80;97431.59;5020636;28;20230;-68
2021/05/15 01:59:37;;;;;;;2.10;0.57;;;;;;;13.45;94.78;97433.91;5025420;28;20610;-69
2021/05/15 02:02:04;;;;;;;1.20;0.63;;;;;;;13.52;95.13;97435.44;5026108;28;20239;-68
2021/05/15 02:04:31;;;;;;;1.77;0.70;;;;;;;13.68;93.79;97426.69;5022971;28;20298;-68
2021/05/15 02:06:58;;;;;;;1.43;0.53;;;;;;;13.71;92.63;97425.41;5029431;28;20227;-69
2021/05/15 02:09:25;;;;;;;1.47;0.60;;;;;;;13.54;93.93;97425.31;5031179;28;20689;-69
2021/05/15 02:11:52;;;;;;;0.50;0.47;;;;;;;14.02;90.20;97423.16;5027089;28;20249;-68
2021/05/15 02:14:19;;;;;;;2.10;0.60;;;;;;;14.15;90.00;97422.91;5021283;28;20254;-68
2021/05/15 02:16:46;;;;;;;3.33;0.70;;;;;;;13.87;90.27;97417.47;5028142;28;20353;-68
2021/05/15 02:19:13;;;;;;;0.60;0.60;;;;;;;13.67;92.80;97414.34;5025839;28;20211;-68
2021/05/15 02:21:40;;;;;;;0.50;0.50;;;;;;;13.52;94.55;97415.88;5020063;28;20578;-68
2021/05/15 02:24:08;;;;;;;2.37;0.53;;;;;;;13.34;96.41;97406.09;5025929;28;20211;-68
2021/05/15 02:26:35;;;;;;;0.90;0.60;;;;;;;13.22;97.92;97405.25;5030094;28;20238;-68
2021/05/15 02:29:02;;;;;;;0.60;0.40;;;;;;;13.42;96.51;97407.59;5020248;28;20276;-68
2021/05/15 02:31:30;;;;;;;0.97;0.60;;;;;;;13.03;100.00;97406.41;5021919;28;20203;-68
2021/05/15 02:33:57;;;;;;;1.60;0.67;;;;;;;13.22;97.32;97399.09;5024423;28;20210;-68
2021/05/15 02:36:24;;;;;;;0.50;0.40;;;;;;;13.17;98.62;97388.25;5021099;28;20698;-68
2021/05/15 02:38:51;;;;;;;0.50;0.33;;;;;;;12.99;99.89;97391.84;5027750;28;20210;-68
2021/05/15 02:41:18;;;;;;;0.57;0.50;;;;;;;13.09;100.00;97392.09;5029565;28;20203;-68
2021/05/15 02:43:45;;;;;;;2.00;0.50;;;;;;;13.19;98.83;97389.66;5018246;28;20202;-68
2021/05/15 02:46:12;;;;;;;0.57;0.50;;;;;;;13.24;99.04;97394.28;5030529;28;20230;-68
2021/05/15 02:48:39;;;;;;;0.57;0.57;;;;;;;13.25;98.68;97386.03;5019862;28;20251;-68
2021/05/15 02:51:06;;;;;;;1.20;0.60;;;;;;;13.10;100.00;97388.34;5024788;28;20210;-68
2021/05/15 02:53:33;;;;;;;1.33;0.60;;;;;;;13.01;100.00;97379.03;5027413;28;20206;-67
2021/05/15 02:56:00;;;;;;;1.83;0.60;;;;;;;12.82;100.00;97386.28;5022665;28;20206;-67
2021/05/15 02:58:27;;;;;;;1.70;0.57;;;;;;;13.12;100.00;97383.56;5017989;28;20213;-70
2021/05/15 03:00:54;;;;;;;0.77;0.60;;;;;;;13.15;100.00;97387.63;5018401;28;20211;-68
2021/05/15 03:03:22;;;;;;;0.80;0.60;;;;;;;13.18;100.00;97392.56;5026978;28;20256;-69
2021/05/15 03:05:50;;;;;;;0.83;0.57;;;;;;;13.19;100.00;97386.97;5029868;28;20206;-69
2021/05/15 03:08:16;;;;;;;0.77;0.60;;;;;;;13.33;98.80;97382.19;5021135;28;20227;-69
2021/05/15 03:10:43;;;;;;;0.93;0.50;;;;;;;13.23;99.88;97381.94;5020771;28;20211;-68
2021/05/15 03:13:10;;;;;;;1.57;0.60;;;;;;;12.71;100.00;97386.25;5018138;28;20214;-68
2021/05/15 03:15:37;;;;;;;0.60;0.50;;;;;;;12.83;100.00;97382.56;5030040;28;20667;-68
2021/05/15 03:18:04;;;;;;;0.77;0.60;;;;;;;12.87;100.00;97388.28;5015341;28;20227;-68
2021/05/15 03:20:31;;;;;;;0.60;0.50;;;;;;;12.84;100.00;97388.75;5025932;28;20210;-68
2021/05/15 03:22:59;;;;;;;1.73;0.60;;;;;;;12.88;100.00;97386.41;5029039;28;20203;-68
2021/05/15 03:25:25;;;;;;;1.03;0.70;;;;;;;12.80;100.00;97384.88;5028049;28;20548;-68
2021/05/15 03:27:52;;;;;;;0.80;0.60;;;;;;;12.81;100.00;97388.41;5022231;28;20283;-69
2021/05/15 03:30:20;;;;;;;1.47;0.93;;;;;;;12.59;100.00;97385.44;5022873;28;20202;-68
2021/05/15 03:32:47;;;;;;;0.90;0.60;;;;;;;12.87;100.00;97385.59;5019337;28;20206;-68
2021/05/15 03:35:15;;;;;;;2.03;0.60;;;;;;;12.76;100.00;97380.25;5026666;28;20571;-68
2021/05/15 03:37:42;;;;;;;0.60;0.50;;;;;;;12.96;100.00;97383.41;5020757;28;20226;-68
2021/05/15 03:40:11;;;;;;;1.00;0.77;;;;;;;12.95;100.00;97382.59;5017705;28;20198;-68
2021/05/15 03:42:38;;;;;;;1.33;0.70;;;;;;;12.91;100.00;97375.25;5024924;28;20272;-68
2021/05/15 03:45:06;;;;;;;0.87;0.77;;;;;;;12.86;100.00;97380.50;5024828;28;20198;-68
2021/05/15 03:47:33;;;;;;;1.27;0.80;;;;;;;12.97;100.00;97377.03;5023556;28;20249;-68
2021/05/15 03:50:00;;;;;;;1.20;0.50;;;;;;;12.89;100.00;97387.00;5022698;28;20675;-68
2021/05/15 03:52:27;;;;;;;2.00;0.80;;;;;;;12.71;100.00;97390.81;5027384;28;20203;-68
2021/05/15 03:54:54;;;;;;;0.60;0.60;;;;;;;13.01;100.00;97386.25;5028912;28;20210;-68
2021/05/15 03:57:21;;;;;;;1.27;0.63;;;;;;;13.15;100.00;97384.97;5033613;28;20218;-68
2021/05/15 03:59:48;;;;;;;0.63;0.60;;;;;;;13.07;100.00;97378.09;5028559;28;20287;-68
2021/05/15 04:02:15;;;;;;;2.23;0.90;;;;;;;13.24;99.38;97384.41;5022991;28;20218;-67
2021/05/15 04:04:41;;;;;;;5.57;0.70;;;;;;;13.23;99.83;97382.75;5026591;28;20575;-68
2021/05/15 04:07:08;;;;;;;0.67;0.60;;;;;;;13.26;99.07;97386.81;5022428;28;20231;-68
2021/05/15 04:09:35;;;;;;;0.97;0.80;;;;;;;13.24;99.27;97383.56;5021871;28;20215;-68
2021/05/15 04:12:02;;;;;;;1.30;0.80;;;;;;;13.33;99.10;97384.88;5023360;28;20207;-68
2021/05/15 04:14:34;;;;;;;1.27;0.57;;;;;;;13.43;97.49;97383.22;5027817;28;20214;-68
2021/05/15 04:17:20;;;;;;;1.33;1.23;;;;;;;13.47;97.20;97384.38;5024209;28;20223;-68
2021/05/15 04:19:48;;;;;;;1.70;0.50;;;;;;;13.44;95.48;97378.69;5033629;28;20299;-68
2021/05/15 04:22:15;;;;;;;0.80;0.70;;;;;;;13.77;94.26;97381.56;5032337;28;20210;-68
2021/05/15 04:24:42;;;;;;;1.10;0.67;;;;;;;13.33;98.27;97374.94;5025354;28;20200;-68
2021/05/15 04:27:09;;;;;;;0.57;0.57;;;;;;;13.83;94.77;97383.31;5019765;28;20416;-68
2021/05/15 04:29:37;;;;;;;0.70;0.60;;;;;;;13.75;94.44;97378.31;5022253;28;20208;-69
2021/05/15 04:32:04;;;;;;;2.10;0.70;;;;;;;13.76;94.56;97374.56;5031388;28;20773;-69
2021/05/15 04:34:31;;;;;;;1.03;0.80;;;;;;;13.82;93.98;97377.13;5031974;28;20214;-69
2021/05/15 04:36:59;;;;;;;1.00;0.67;;;;;;;14.11;92.35;97373.44;5025878;28;20231;-70
2021/05/15 04:39:26;;;;;;;0.57;0.50;;;;;;;14.18;91.54;97371.41;5022498;28;20650;-70
2021/05/15 04:41:53;;;;;;;2.00;1.07;;;;;;;13.73;96.48;97375.06;5031561;28;20664;-70
2021/05/15 04:44:20;;;;;;;0.97;0.70;;;;;;;14.06;93.68;97386.75;5025083;28;20207;-70
2021/05/15 04:46:48;;;;;;;1.23;0.57;;;;;;;14.35;91.30;97388.44;5022298;28;20763;-68
2021/05/15 04:49:15;;;;;;;1.87;0.70;;;;;;;14.34;90.96;97383.31;5029137;28;20203;-69
2021/05/15 04:51:42;;;;;;;0.60;0.60;;;;;;;14.59;88.85;97387.25;5029216;28;20722;-69
2021/05/15 04:54:09;;;;;;;2.40;0.80;;;;;;;14.61;88.56;97387.84;5024401;28;20199;-70
2021/05/15 04:56:36;;;;;;;1.00;0.80;;;;;;;14.78;86.78;97393.22;5018511;28;20588;-69
2021/05/15 04:59:03;;;;;;;0.90;0.50;;;;;;;14.60;88.16;97394.28;5022972;28;20273;-70
2021/05/15 05:01:30;;;;;;;0.50;0.40;;;;;;;14.61;87.39;97393.22;5025189;28;20208;-69
2021/05/15 05:03:58;;;;;;;1.90;0.60;;;;;;;14.25;90.01;97396.28;5028243;28;20203;-69
2021/05/15 05:06:25;;;;;;;1.10;0.67;;;;;;;14.65;87.33;97393.56;5024162;28;20246;-68
2021/05/15 05:08:52;;;;;;;2.03;1.00;;;;;;;14.96;86.69;97390.34;5025752;28;20219;-68
2021/05/15 05:11:18;;;;;;;1.17;0.70;;;;;;;14.52;87.36;97388.47;5024974;28;20219;-68
2021/05/15 05:13:45;;;;;;;1.20;0.60;;;;;;;15.16;84.88;97390.66;5021622;28;20204;-68
2021/05/15 05:16:12;;;;;;;1.10;0.60;;;;;;;15.29;82.42;97393.84;5026395;28;20224;-68
2021/05/15 05:18:39;;;;;;;2.57;0.70;;;;;;;15.37;80.88;97392.66;5024722;28;20295;-68
2021/05/15 05:21:06;;;;;;;2.53;0.80;;;;;;;15.21;80.08;97388.88;5032689;28;20275;-68
2021/05/15 05:23:33;;;;;;;1.50;0.50;;;;;;;15.91;78.43;97389.13;5030546;28;20214;-68
2021/05/15 05:26:00;;;;;;;0.57;0.50;;;;;;;16.10;75.84;97393.13;5025323;28;20240;-68
2021/05/15 05:28:33;;;;;;;1.13;0.60;;;;;;;15.77;79.39;97385.16;5031694;28;20323;-68
2021/05/15 05:31:00;;;;;;;0.70;0.63;;;;;;;15.95;77.36;97385.69;5019825;28;20614;-71
2021/05/15 05:33:27;;;;;;;0.83;0.60;;;;;;;15.89;76.40;97378.59;5029336;28;20205;-71
2021/05/15 05:35:54;;;;;;;0.87;0.60;;;;;;;15.97;76.59;97378.19;5026869;28;20574;-71
2021/05/15 05:38:21;;;;;;;1.73;0.70;;;;;;;16.38;74.24;97383.00;5020709;28;20245;-70
2021/05/15 05:40:48;;;;;;;1.00;0.60;;;;;;;16.37;73.35;97386.72;5030160;28;20233;-72
2021/05/15 05:43:15;;;;;;;1.77;0.60;;;;;;;16.34;74.51;97376.47;5017947;28;20227;-72
2021/05/15 05:45:42;;;;;;;0.43;0.43;;;;;;;16.45;73.67;97375.53;5023059;28;20203;-71
2021/05/15 05:48:08;;;;;;;1.20;0.50;;;;;;;16.36;73.43;97374.31;5031061;28;20758;-72
2021/05/15 05:50:35;;;;;;;0.90;0.60;;;;;;;16.35;72.11;97382.66;5023162;28;20559;-72
2021/05/15 05:53:02;;;;;;;1.03;0.40;;;;;;;16.38;73.44;97376.78;5028315;28;20207;-72
2021/05/15 05:55:30;;;;;;;0.90;0.53;;;;;;;16.90;71.14;97384.09;5014513;28;20210;-70
2021/05/15 05:57:57;;;;;;;0.57;0.50;;;;;;;17.57;67.91;97379.78;5023988;28;20219;-72
2021/05/15 06:00:24;;;;;;;0.87;0.40;;;;;;;17.09;69.33;97379.94;5023500;28;20252;-72
2021/05/15 06:02:50;;;;;;;1.47;0.63;;;;;;;17.37;67.84;97376.91;5025236;28;20211;-68
2021/05/15 06:05:17;;;;;;;0.83;0.53;;;;;;;17.58;65.91;97381.41;5026340;28;20618;-71
2021/05/15 06:07:44;;;;;;;0.53;0.47;;;;;;;16.80;67.99;97372.38;5028316;28;20251;-70
2021/05/15 06:10:12;;;;;;;0.93;0.70;;;;;;;17.18;66.09;97375.69;5023212;28;20581;-71
2021/05/15 06:12:39;;;;;;;0.60;0.50;;;;;;;16.75;68.09;97369.66;5024007;28;20212;-70
2021/05/15 06:15:07;;;;;;;0.60;0.50;;;;;;;16.82;67.19;97376.44;5029673;28;20214;-69
2021/05/15 06:17:34;;;;;;;0.97;0.50;;;;;;;16.99;66.65;97365.56;5029409;28;20227;-72
2021/05/15 06:20:01;;;;;;;1.90;0.60;;;;;;;16.32;67.63;97369.72;5022542;28;20307;-70
2021/05/15 06:22:28;;;;;;;1.23;0.50;;;;;;;16.81;67.24;97366.75;5019859;28;20208;-71
2021/05/15 06:24:55;;;;;;;0.67;0.43;;;;;;;17.29;65.73;97361.22;5017756;28;20233;-70
2021/05/15 06:27:22;;;;;;;0.47;0.47;;;;;;;18.01;62.14;97366.81;5027018;28;20239;-71
2021/05/15 06:29:49;;;;;;;1.20;0.60;;;;;;;18.31;59.85;97373.16;5026720;28;20669;-71
2021/05/15 06:32:16;;;;;;;0.50;0.50;;;;;;;18.10;60.52;97373.34;5030608;28;20228;-71
2021/05/15 06:34:43;;;;;;;0.73;0.37;;;;;;;18.01;60.89;97372.19;5023078;28;20234;-70
2021/05/15 06:37:10;;;;;;;1.47;0.73;;;;;;;18.54;59.63;97361.09;5029659;28;20222;-70
2021/05/15 06:39:36;;;;;;;1.00;0.60;;;;;;;18.70;57.30;97360.84;5022684;28;20211;-70
2021/05/15 06:42:03;;;;;;;2.10;0.40;;;;;;;18.92;55.96;97363.31;5029896;28;20203;-69
2021/05/15 06:44:30;;;;;;;1.07;0.60;;;;;;;18.70;58.50;97355.44;5026126;28;20207;-71
2021/05/15 06:46:58;;;;;;;1.03;0.50;;;;;;;18.51;59.47;97351.63;5024178;28;20687;-69
2021/05/15 06:49:25;;;;;;;2.27;0.67;;;;;;;18.94;56.45;97353.84;5024587;28;20218;-69
2021/05/15 06:51:52;;;;;;;0.80;0.60;;;;;;;19.07;55.54;97358.75;5018500;28;20206;-68
2021/05/15 06:54:18;;;;;;;0.43;0.43;;;;;;;18.42;58.68;97355.09;5023310;28;20198;-70
2021/05/15 06:56:45;;;;;;;0.50;0.50;;;;;;;18.51;58.88;97348.09;5030774;28;20218;-70
2021/05/15 06:59:12;;;;;;;1.93;0.70;;;;;;;18.63;56.91;97356.78;5022311;28;20241;-70
2021/05/15 07:01:39;;;;;;;0.50;0.50;;;;;;;18.35;57.77;97358.06;5028789;28;20202;-70
2021/05/15 07:04:07;;;;;;;3.00;0.53;;;;;;;18.52;58.43;97358.66;5024700;28;20314;-70
2021/05/15 07:06:33;;;;;;;0.93;0.43;;;;;;;19.05;55.77;97360.09;5026029;28;20314;-70
2021/05/15 07:09:00;;;;;;;1.90;0.70;;;;;;;18.77;56.67;97357.88;5020914;28;20213;-69
2021/05/15 07:11:27;;;;;;;1.00;0.50;;;;;;;18.69;56.22;97363.84;5027793;28;20235;-71
2021/05/15 07:13:54;;;;;;;0.47;0.40;;;;;;;18.72;56.27;97355.16;5019443;28;20210;-71
2021/05/15 07:16:20;;;;;;;0.77;0.50;;;;;;;18.97;54.69;97353.31;5011372;28;20911;-71
2021/05/15 07:18:47;;;;;;;0.50;0.50;;;;;;;19.00;54.41;97369.00;5023678;28;20298;-75
2021/05/15 07:21:15;;;;;;;1.30;0.60;;;;;;;19.08;53.19;97357.66;5014840;28;20211;-75
2021/05/15 07:23:48;;;;;;;0.93;0.50;;;;;;;18.63;57.07;97352.19;5025830;28;20229;-70
2021/05/15 07:26:15;;;;;;;2.43;0.60;;;;;;;18.89;55.27;97355.75;5027038;28;20245;-71
2021/05/15 07:28:42;;;;;;;1.50;0.40;;;;;;;18.62;55.99;97349.75;5031758;28;20226;-78
2021/05/15 07:31:09;;;;;;;1.30;0.67;;;;;;;18.67;58.63;97342.47;5025891;28;20226;-68
2021/05/15 07:33:35;;;;;;;2.47;0.57;;;;;;;19.31;55.44;97354.41;5027290;28;20207;-69
2021/05/15 07:36:02;;;;;;;1.40;0.50;;;;;;;18.21;58.18;97345.28;5028231;28;20290;-68
2021/05/15 07:38:31;;;;;;;1.07;0.40;;;;;;;18.95;55.43;97341.16;5026964;28;20203;-71
2021/05/15 07:40:58;;;;;;;1.33;0.53;;;;;;;18.60;55.90;97343.81;5024664;28;20687;-69
2021/05/15 07:43:26;;;;;;;1.23;0.50;;;;;;;19.23;54.64;97338.75;5026770;28;20206;-69
2021/05/15 07:45:54;;;;;;;1.93;0.60;;;;;;;19.09;53.49;97342.22;5033160;28;20207;-69
2021/05/15 07:48:28;;;;;;;0.60;0.50;;;;;;;19.70;52.63;97336.50;5032971;28;20243;-68
2021/05/15 07:50:55;;;;;;;1.33;0.60;;;;;;;20.10;50.76;97349.94;5029992;28;20198;-68
2021/05/15 07:53:22;;;;;;;2.10;0.70;;;;;;;20.49;49.64;97350.03;5025998;28;20221;-69
2021/05/15 07:55:50;;;;;;;1.20;0.50;;;15.00;1.00;;;18.96;53.50;97332.78;5023929;28;20572;-73
2021/05/15 07:58:16;;;;;;;1.83;0.70;;;14.90;1.00;;;19.93;51.01;97337.78;5023207;28;20273;-70
2021/05/15 08:00:43;;;;;;;2.60;0.60;;;15.00;1.00;;;20.00;48.96;97338.28;5027379;28;20204;-72
2021/05/15 08:03:09;;;;;;;6.30;1.27;;;14.90;1.00;;;19.59;51.03;97347.63;5020459;28;20218;-73
2021/05/15 08:05:36;;;;;;;1.87;0.53;;;14.80;1.00;;;19.83;50.13;97343.22;5023089;28;20294;-72
2021/05/15 08:08:03;;;;;;;0.90;0.50;;;14.70;1.00;;;19.43;49.98;97341.44;5029916;28;20232;-78
2021/05/15 08:10:31;;;;;;;0.40;0.40;;;14.60;1.00;;;19.15;51.42;97339.25;5024479;28;20213;-80
2021/05/15 08:12:59;;;;;;;0.97;0.50;;;14.40;1.00;;;18.80;52.93;97341.94;5028837;28;20226;-76
2021/05/15 08:15:26;;;;;;;0.73;0.40;;;14.10;1.00;;;18.63;55.07;97332.44;5024098;28;20214;-70
2021/05/15 08:17:53;;;;;;;0.90;0.50;;;14.10;1.00;;;18.64;52.62;97332.19;5030475;28;20684;-79
2021/05/15 08:20:21;;;;;;;1.40;0.70;;;13.90;1.00;;;18.70;54.63;97324.91;5034050;28;20718;-80
2021/05/15 08:22:48;;;;;;;0.73;0.50;;;13.90;1.00;;;18.31;54.54;97335.34;5026458;28;20215;-78
2021/05/15 08:25:16;;;;;;;0.97;0.57;;;13.70;1.00;;;18.55;53.82;97333.00;5031136;28;20188;-72
2021/05/15 08:27:50;;;;;;;0.87;0.40;;;13.70;1.00;;;18.49;54.09;97337.56;5027719;28;20231;-77
2021/05/15 08:30:20;;;;;;;4.33;0.70;;;13.70;1.00;;;18.25;55.14;97336.41;5022139;28;20217;-80
2021/05/15 08:32:50;;;;;;;1.90;0.70;;;13.60;1.00;;;19.00;53.36;97333.84;5026269;28;20271;-72
2021/05/15 08:35:17;;;;;;;0.67;0.57;;;13.70;1.00;;;18.54;55.14;97331.38;5028230;28;20297;-76
2021/05/15 08:37:44;;;;;;;1.07;0.60;;;13.80;1.00;;;18.69;53.61;97323.28;5025800;28;20234;-70
2021/05/15 08:40:13;;;;;;;1.87;0.50;;;14.00;1.00;;;19.20;52.21;97320.31;5027692;28;20211;-69
2021/05/15 08:42:40;;;;;;;1.53;0.70;;;14.10;1.00;;;19.62;51.72;97326.25;5027150;28;20206;-71
2021/05/15 08:45:10;;;;;;;1.13;0.80;;;14.20;1.00;;;19.53;50.85;97333.28;5035107;28;20236;-76
2021/05/15 08:47:40;;;;;;;1.53;0.60;;;14.40;1.00;;;19.77;51.43;97325.38;5026594;28;20317;-72
2021/05/15 08:50:10;;;;;;;0.77;0.50;;;14.60;1.00;;;19.50;51.28;97319.50;5026635;28;20619;-68
2021/05/15 08:52:40;;;;;;;2.07;0.60;;;14.80;1.00;;;20.31;48.54;97329.78;5024254;28;20211;-71
2021/05/15 08:55:09;;;;;;;2.00;0.67;;;14.90;1.00;;;19.40;52.35;97320.31;5024579;28;20660;-71
2021/05/15 08:57:36;;;;;;;1.33;0.60;;;15.00;1.00;;;20.75;46.88;97327.91;5024140;28;20636;-72
2021/05/15 09:00:11;;;;;;;1.73;0.60;;;15.20;1.00;;;20.26;47.61;97329.03;5023001;28;20213;-70
2021/05/15 09:02:39;;;;;;;2.17;0.70;;;15.20;1.00;;;20.25;47.36;97321.97;5025658;28;20273;-68
2021/05/15 09:05:08;;;;;;;3.27;0.70;;;15.30;1.00;;;20.65;45.81;97319.00;5026881;28;20711;-72
2021/05/15 09:07:37;;;;;;;2.43;0.60;;;15.40;1.00;;;20.52;45.89;97334.00;5020596;28;20642;-68
2021/05/15 09:10:05;;;;;;;1.43;0.57;;;15.40;1.00;;;20.22;47.75;97328.75;5023425;28;20221;-72
2021/05/15 09:12:32;;;;;;;1.10;0.80;;;15.40;1.00;;;20.37;47.42;97336.78;5025151;28;20686;-72
2021/05/15 09:15:00;;;;;;;0.50;0.47;;;15.50;1.00;;;19.89;49.21;97312.34;5029159;28;20211;-71
2021/05/15 09:17:27;;;;;;;5.07;0.90;;;15.30;1.00;;;20.36;46.17;97316.22;5020397;28;20288;-69
2021/05/15 09:19:55;;;;;;;1.47;0.50;;;15.40;1.00;;;20.17;46.45;97319.84;5021839;28;20275;-71
2021/05/15 09:22:26;;;;;;;0.80;0.50;;;15.50;1.00;;;19.88;47.25;97319.66;5022492;28;20226;-70
2021/05/15 09:24:53;;;;;;;1.27;0.57;;;15.70;1.00;;;20.64;45.77;97309.25;5020703;28;20624;-72
2021/05/15 09:27:20;;;;;;;1.10;0.50;;;15.90;1.00;;;20.90;44.15;97318.88;5025979;28;20233;-70
2021/05/15 09:29:50;;;;;;;1.37;0.70;;;16.00;1.00;;;21.67;42.92;97324.13;5021965;28;20428;-70
2021/05/15 09:32:29;;;;;;;1.50;0.60;;;16.30;1.00;;;20.68;44.74;97315.75;5024005;28;20202;-72
2021/05/15 09:34:58;;;;;;;2.90;0.60;;;16.10;1.00;;;21.10;45.01;97308.69;5025100;28;20213;-69
2021/05/15 09:37:29;;;;;;;1.53;0.50;;;16.50;1.00;;;21.53;43.15;97315.84;5022283;28;20226;-69
2021/05/15 09:39:56;;;;;;;0.60;0.50;;;16.90;1.00;;;21.96;41.71;97314.06;5023993;28;20220;-69
2021/05/15 09:42:22;;;;;;;0.83;0.40;;;17.20;1.00;;;22.00;41.39;97309.66;5024716;28;20203;-71
2021/05/15 09:44:49;;;;;;;0.97;0.87;;;17.40;1.00;;;22.93;39.11;97307.84;5028967;28;20206;-70
2021/05/15 09:47:19;;;;;;;2.90;0.80;;;17.50;1.00;;;22.30;39.60;97310.09;5021447;28;20237;-69
2021/05/15 09:49:49;;;;;;;1.33;0.60;;;17.80;1.00;;;21.74;40.87;97298.28;5021375;28;20207;-69
2021/05/15 09:52:16;;;;;;;1.40;0.67;;;17.30;1.00;;;22.20;40.49;97293.13;5024342;28;20227;-72
2021/05/15 09:54:44;;;;;;;1.00;0.67;;;17.50;1.00;;;21.61;42.64;97285.38;5029087;28;20240;-72
2021/05/15 09:57:14;;;;;;;0.87;0.50;;;17.30;1.00;;;21.84;41.86;97289.22;5023579;28;20234;-73
2021/05/15 09:59:44;;;;;;;0.90;0.50;;;17.00;1.00;;;21.75;41.33;97282.81;5028412;28;20297;-71
2021/05/15 10:02:13;;;;;;;2.20;0.80;;;16.90;1.00;;;20.14;46.95;97255.38;5025365;28;20249;-71
2021/05/15 10:04:41;;;;;;;1.30;0.60;;;16.30;1.00;;;20.84;44.63;97261.13;5025904;28;20288;-71
2021/05/15 10:07:16;;;;;;;1.73;0.73;;;16.10;1.00;;;20.22;45.55;97258.28;5023684;28;20687;-70
2021/05/15 10:09:43;;;;;;;0.97;0.70;;;16.20;1.00;;;20.79;45.25;97254.91;5027270;28;20554;-68
2021/05/15 10:12:09;;;;;;;3.97;0.60;;;16.20;1.00;;;21.62;42.76;97251.69;5025698;28;20293;-69
2021/05/15 10:14:36;;;;;;;3.20;0.73;;;16.30;1.00;;;21.53;42.71;97247.97;5022929;28;20203;-68
2021/05/15 10:17:03;;;;;;;2.93;1.00;;;16.40;1.00;;;20.39;44.83;97249.78;5026884;28;20743;-75
2021/05/15 10:19:30;;;;;;;1.33;0.60;;;16.30;1.00;;;21.21;42.45;97247.78;5021541;28;20202;-72
2021/05/15 10:21:57;;;;;;;5.40;0.70;;;16.30;1.00;;;20.85;44.84;97238.31;5025133;28;20323;-72
2021/05/15 10:24:27;;;;;;;2.00;0.80;;;16.10;1.00;;;20.73;43.24;97245.22;5026376;28;20207;-71
2021/05/15 10:27:00;;;;;;;1.47;0.77;;;15.90;1.00;;;21.12;43.86;97243.28;5029957;28;20721;-70
2021/05/15 10:29:38;;;;;;;1.40;0.80;;;16.00;1.00;;;21.01;46.06;97228.97;5021022;28;20242;-71
2021/05/15 10:32:08;;;;;;;0.70;0.60;;;16.00;1.00;;;20.70;45.77;97224.91;5021321;28;20210;-71
2021/05/15 10:34:36;;;;;;;1.73;0.97;;;16.10;1.00;;;21.40;42.79;97224.25;5020567;28;21802;-70
2021/05/15 10:37:03;;;;;;;1.63;0.70;;;16.30;1.00;;;20.15;45.72;97210.91;5025609;28;20220;-71
2021/05/15 10:39:32;;;;;;;3.30;0.80;;;16.20;1.00;;;20.02;46.33;97197.97;5025167;28;20214;-70
2021/05/15 10:42:01;;;;;;;3.43;0.70;;;16.00;1.00;;;20.58;44.97;97200.03;5026077;28;20213;-71
2021/05/15 10:44:39;;;;;;;3.43;0.80;;;16.00;1.00;;;20.06;45.49;97201.75;5021564;28;20252;-70
2021/05/15 10:47:06;;;;;;;2.40;1.00;;;16.10;1.00;;;20.97;43.13;97195.38;5023753;28;20600;-70
2021/05/15 10:49:33;;;;;;;2.03;0.70;;;16.20;1.00;;;21.98;40.38;97195.00;5020329;28;20293;-73
2021/05/15 10:52:09;;;;;;;1.33;0.87;;;16.50;1.00;;;21.14;39.63;97200.38;5022313;28;20312;-72
2021/05/15 10:54:39;;;;;;;1.30;0.70;;;16.50;1.00;;;21.27;40.11;97202.38;5024932;28;20622;-75
2021/05/15 10:57:08;;;;;;;3.23;0.70;;;16.40;1.00;;;20.41;39.79;97196.94;5029641;28;20229;-69
2021/05/15 10:59:36;;;;;;;8.33;0.90;;;16.40;1.00;;;21.28;40.74;97198.59;5031151;28;20210;-71
2021/05/15 11:02:09;;;;;;;3.37;0.57;;;16.30;1.00;;;21.00;37.61;97211.09;5023013;28;20225;-73
2021/05/15 11:04:48;;;;;;;2.10;0.77;;;16.40;1.00;;;20.84;38.42;97201.47;5025289;28;20279;-69
2021/05/15 11:07:15;;;;;;;1.40;0.63;;;16.40;1.00;;;20.76;38.57;97198.53;5021627;28;20657;-71
2021/05/15 11:09:53;;;;;;;2.40;0.77;;;16.30;1.00;;;21.07;37.37;97206.13;5026445;28;20568;-69
2021/05/15 11:12:21;;;;;;;1.50;0.67;;;16.30;1.00;;;20.90;36.59;97205.75;5031517;28;20217;-69
2021/05/15 11:14:49;;;;;;;5.80;1.07;;;16.40;1.00;;;20.96;36.37;97207.34;5022217;28;20201;-71